Time;durP1;ratioP1;P1;durP2;ratioP2;P2;SDS_P1;SDS_P2;PMS_P1;PMS_P2;Temp;Humidity;BMP_temperature;BMP_pressure;BME280_temperature;BME280_humidity;BME280_pressure;Samples;Min_cycle;Max_cycle;Signal;HPM_P1;HPM_P2
2022/04/30 00:01:11;;;;;;;13.18;8.07;;;;;;;;;;5005251;28;20120;-72
2022/04/30 00:03:38;;;;;;;13.52;8.82;;;;;;;;;;5005509;28;20092;-73
2022/04/30 00:06:04;;;;;;;16.52;9.10;;;;;;;;;;5012865;28;20018;-72
2022/04/30 00:08:30;;;;;;;11.23;7.95;;;;;;;;;;5000081;28;20034;-72
2022/04/30 00:10:56;;;;;;;11.27;8.13;;;;;;;;;;5011234;28;20018;-72
2022/04/30 00:13:22;;;;;;;15.18;8.57;;;;;;;;;;5006618;28;20037;-72
2022/04/30 00:15:48;;;;;;;14.93;8.93;;;;;;;;;;5001723;28;20029;-71
2022/04/30 00:18:14;;;;;;;16.52;8.18;;;;;;;;;;5012401;28;20025;-72
2022/04/30 00:20:45;;;;;;;21.20;8.45;;;;;;;;;;5000589;28;20105;-72
2022/04/30 00:23:19;;;;;;;10.77;7.80;;;;;;;;;;5008277;28;20022;-72
2022/04/30 00:25:46;;;;;;;12.68;7.63;;;;;;;;;;5009071;28;20022;-72
2022/04/30 00:28:12;;;;;;;10.63;7.70;;;;;;;;;;4995662;28;20401;-73
2022/04/30 00:30:38;;;;;;;11.55;7.60;;;;;;;;;;4998692;28;20110;-73
2022/04/30 00:33:09;;;;;;;13.05;8.95;;;;;;;;;;5005309;28;20021;-72
2022/04/30 00:35:35;;;;;;;13.15;7.95;;;;;;;;;;5002264;28;20030;-73
2022/04/30 00:38:07;;;;;;;12.00;8.45;;;;;;;;;;4995924;28;20042;-70
2022/04/30 00:40:33;;;;;;;13.95;7.13;;;;;;;;;;4995745;28;20109;-73
2022/04/30 00:42:59;;;;;;;18.27;7.60;;;;;;;;;;5013638;28;20037;-73
2022/04/30 00:45:25;;;;;;;17.13;7.50;;;;;;;;;;5013685;28;20034;-73
2022/04/30 00:47:52;;;;;;;9.98;7.25;;;;;;;;;;5000912;28;20022;-73
2022/04/30 00:50:18;;;;;;;10.00;6.57;;;;;;;;;;4997318;28;20026;-73
2022/04/30 00:52:44;;;;;;;11.65;6.70;;;;;;;;;;5012467;28;20026;-73
2022/04/30 00:55:10;;;;;;;10.05;6.22;;;;;;;;;;4983174;28;20353;-72
2022/04/30 00:57:37;;;;;;;9.02;6.60;;;;;;;;;;4988752;28;20037;-73
2022/04/30 01:00:04;;;;;;;10.80;6.07;;;;;;;;;;5021575;28;20037;-73
2022/04/30 01:02:32;;;;;;;11.65;7.60;;;;;;;;;;5001994;28;20030;-73
2022/04/30 01:04:58;;;;;;;10.15;6.28;;;;;;;;;;5017783;28;20026;-73
2022/04/30 01:07:24;;;;;;;11.07;7.40;;;;;;;;;;5004233;28;20117;-73
2022/04/30 01:09:51;;;;;;;12.73;6.97;;;;;;;;;;5005644;28;20500;-73
2022/04/30 01:12:17;;;;;;;9.93;6.53;;;;;;;;;;4998151;28;20068;-73
2022/04/30 01:14:45;;;;;;;9.52;6.85;;;;;;;;;;5012926;28;20026;-73
2022/04/30 01:17:12;;;;;;;11.20;6.78;;;;;;;;;;5006993;28;20074;-72
2022/04/30 01:19:39;;;;;;;10.20;6.15;;;;;;;;;;4996149;28;20035;-74
2022/04/30 01:22:35;;;;;;;9.52;6.10;;;;;;;;;;4995847;28;20121;-72
2022/04/30 01:25:01;;;;;;;10.77;6.95;;;;;;;;;;4991302;28;20045;-73
2022/04/30 01:27:28;;;;;;;10.57;6.70;;;;;;;;;;5005536;28;20037;-72
2022/04/30 01:29:59;;;;;;;11.75;7.18;;;;;;;;;;5012449;28;20032;-73
2022/04/30 01:38:12;;;;;;;7.53;6.28;;;;;;;;;;4996804;28;20084;-73
2022/04/30 01:40:42;;;;;;;11.20;7.03;;;;;;;;;;5013971;28;20073;-73
2022/04/30 01:43:08;;;;;;;9.75;6.88;;;;;;;;;;5003980;28;20033;-73
2022/04/30 01:45:34;;;;;;;7.93;6.38;;;;;;;;;;5005220;28;20666;-72
2022/04/30 01:48:04;;;;;;;9.45;6.30;;;;;;;;;;5010673;28;20086;-73
2022/04/30 01:50:31;;;;;;;7.88;6.32;;;;;;;;;;5000945;28;20512;-72
2022/04/30 01:52:57;;;;;;;13.00;7.32;;;;;;;;;;5008829;28;20026;-72
2022/04/30 01:55:23;;;;;;;9.20;6.00;;;;;;;;;;5004201;28;20033;-70
2022/04/30 01:57:49;;;;;;;13.77;7.15;;;;;;;;;;5000062;28;20488;-72
2022/04/30 02:00:20;;;;;;;8.93;6.75;;;;;;;;;;5012030;28;20026;-73
2022/04/30 02:02:46;;;;;;;10.93;7.35;;;;;;;;;;4999100;28;20369;-73
2022/04/30 02:05:15;;;;;;;11.35;6.60;;;;;;;;;;5001249;28;20046;-73
2022/04/30 02:07:49;;;;;;;10.57;6.78;;;;;;;;;;5000710;28;20392;-73
2022/04/30 02:10:15;;;;;;;9.20;7.38;;;;;;;;;;5015262;28;20030;-72
2022/04/30 02:12:42;;;;;;;7.82;6.45;;;;;;;;;;5019231;28;20026;-72
2022/04/30 02:15:09;;;;;;;12.55;7.00;;;;;;;;;;5012566;28;20030;-73
2022/04/30 02:17:38;;;;;;;9.27;6.90;;;;;;;;;;5009982;28;20535;-73
2022/04/30 02:20:21;;;;;;;9.73;7.25;;;;;;;;;;5019654;28;20029;-73
2022/04/30 02:22:48;;;;;;;7.95;6.55;;;;;;;;;;4988137;28;20476;-74
2022/04/30 02:25:15;;;;;;;9.85;6.30;;;;;;;;;;5011498;28;20041;-72
2022/04/30 02:27:42;;;;;;;10.55;7.25;;;;;;;;;;5005288;28;20475;-73
2022/04/30 02:30:14;;;;;;;10.40;6.57;;;;;;;;;;4999125;28;20125;-73
2022/04/30 02:32:41;;;;;;;16.55;7.80;;;;;;;;;;4982775;28;20373;-73
2022/04/30 02:35:07;;;;;;;11.27;6.60;;;;;;;;;;5005936;28;20023;-72
2022/04/30 02:37:33;;;;;;;11.73;7.88;;;;;;;;;;5003962;28;20029;-73
2022/04/30 02:39:59;;;;;;;11.85;7.03;;;;;;;;;;5000038;28;20072;-73
2022/04/30 02:42:25;;;;;;;12.85;7.32;;;;;;;;;;5014764;28;20390;-73
2022/04/30 02:44:52;;;;;;;7.78;5.80;;;;;;;;;;5015122;28;20026;-72
2022/04/30 02:47:18;;;;;;;8.75;6.35;;;;;;;;;;5009490;28;20025;-72
2022/04/30 02:49:44;;;;;;;10.63;7.22;;;;;;;;;;5006857;28;20076;-73
2022/04/30 02:52:10;;;;;;;9.48;6.55;;;;;;;;;;5016337;28;20026;-72
2022/04/30 02:54:36;;;;;;;10.82;7.22;;;;;;;;;;5000013;28;20029;-71
2022/04/30 02:57:02;;;;;;;10.07;6.20;;;;;;;;;;4999900;28;20048;-72
2022/04/30 03:02:13;;;;;;;12.20;7.45;;;;;;;;;;5013882;28;20056;-73
2022/04/30 03:04:39;;;;;;;8.52;6.10;;;;;;;;;;4985343;28;20472;-73
2022/04/30 03:07:05;;;;;;;20.98;7.38;;;;;;;;;;5009961;28;20080;-71
2022/04/30 03:09:32;;;;;;;10.85;6.75;;;;;;;;;;5006487;28;20073;-73
2022/04/30 03:11:58;;;;;;;11.70;6.15;;;;;;;;;;5002070;28;20561;-73
2022/04/30 03:14:24;;;;;;;11.65;7.05;;;;;;;;;;4998211;28;20550;-73
2022/04/30 03:22:20;;;;;;;9.25;6.82;;;;;;;;;;4999841;28;20124;-72
2022/04/30 03:24:46;;;;;;;10.07;6.75;;;;;;;;;;5000188;28;20030;-73
2022/04/30 03:27:12;;;;;;;8.60;6.35;;;;;;;;;;5003098;28;20042;-74
2022/04/30 03:29:38;;;;;;;10.23;6.80;;;;;;;;;;5004515;28;20030;-73
2022/04/30 03:32:04;;;;;;;10.93;6.82;;;;;;;;;;4996745;28;20037;-73
2022/04/30 03:34:32;;;;;;;10.55;6.25;;;;;;;;;;5008129;28;20041;-72
2022/04/30 03:36:59;;;;;;;9.98;5.47;;;;;;;;;;4993525;28;20019;-71
2022/04/30 03:39:25;;;;;;;10.90;6.20;;;;;;;;;;5001625;28;20045;-72
2022/04/30 03:41:51;;;;;;;8.75;5.57;;;;;;;;;;5000209;28;20030;-73
2022/04/30 03:44:17;;;;;;;13.00;6.53;;;;;;;;;;4991982;28;20072;-74
2022/04/30 03:46:43;;;;;;;12.77;5.53;;;;;;;;;;4995888;28;20021;-73
2022/04/30 03:49:09;;;;;;;10.93;6.25;;;;;;;;;;5004558;28;20488;-73
2022/04/30 03:51:35;;;;;;;8.65;5.78;;;;;;;;;;5005033;28;20084;-73
2022/04/30 03:54:01;;;;;;;10.30;6.22;;;;;;;;;;4998419;28;20027;-73
2022/04/30 03:56:27;;;;;;;9.88;5.72;;;;;;;;;;5011668;28;20090;-73
2022/04/30 03:58:53;;;;;;;10.18;5.30;;;;;;;;;;5012561;28;20034;-73
2022/04/30 04:01:21;;;;;;;8.02;5.90;;;;;;;;;;5013405;28;20026;-74
2022/04/30 04:03:48;;;;;;;12.25;6.40;;;;;;;;;;5000150;28;20041;-72
2022/04/30 04:06:15;;;;;;;12.85;6.93;;;;;;;;;;5009286;28;20030;-73
2022/04/30 04:08:42;;;;;;;13.20;6.55;;;;;;;;;;5012330;28;20048;-73
2022/04/30 04:11:13;;;;;;;10.40;7.03;;;;;;;;;;5005395;28;20101;-73
2022/04/30 04:19:09;;;;;;;9.40;6.63;;;;;;;;;;4994616;28;20400;-72
2022/04/30 04:21:35;;;;;;;14.32;6.22;;;;;;;;;;5005322;28;20029;-74
2022/04/30 04:26:45;;;;;;;8.02;6.60;;;;;;;;;;4982654;28;20029;-73
2022/04/30 04:29:11;;;;;;;11.65;6.65;;;;;;;;;;5003760;28;20056;-73
2022/04/30 04:31:38;;;;;;;12.35;6.30;;;;;;;;;;4992989;28;20026;-74
2022/04/30 04:34:04;;;;;;;11.38;6.38;;;;;;;;;;4993598;28;20109;-73
2022/04/30 04:36:30;;;;;;;10.98;6.10;;;;;;;;;;5009992;28;20034;-71
2022/04/30 04:38:56;;;;;;;8.95;6.03;;;;;;;;;;4997895;28;20030;-73
2022/04/30 04:41:22;;;;;;;10.70;6.65;;;;;;;;;;5006915;28;20484;-70
2022/04/30 04:43:48;;;;;;;9.07;6.22;;;;;;;;;;5003293;28;20571;-73
2022/04/30 04:46:14;;;;;;;10.60;6.13;;;;;;;;;;5012734;28;20026;-74
2022/04/30 04:48:40;;;;;;;10.38;6.25;;;;;;;;;;4989981;28;20035;-73
2022/04/30 04:51:06;;;;;;;8.52;5.35;;;;;;;;;;5003294;28;20041;-73
2022/04/30 04:53:32;;;;;;;13.05;6.13;;;;;;;;;;5003787;28;20022;-72
2022/04/30 04:55:59;;;;;;;10.40;6.15;;;;;;;;;;5009420;28;20022;-72
2022/04/30 04:58:25;;;;;;;9.57;6.72;;;;;;;;;;4997208;28;20490;-72
2022/04/30 05:00:51;;;;;;;12.38;5.68;;;;;;;;;;5014601;28;20030;-73
2022/04/30 05:03:20;;;;;;;8.68;5.85;;;;;;;;;;5014076;28;20030;-71
2022/04/30 05:05:46;;;;;;;13.57;6.63;;;;;;;;;;4993064;28;20488;-73
2022/04/30 05:08:12;;;;;;;13.02;6.07;;;;;;;;;;5008985;28;20116;-73
2022/04/30 05:10:38;;;;;;;8.48;6.00;;;;;;;;;;4999620;28;20109;-73
2022/04/30 05:13:04;;;;;;;9.38;5.53;;;;;;;;;;4998509;28;20022;-72
2022/04/30 05:15:30;;;;;;;6.95;5.07;;;;;;;;;;5008800;28;20030;-73
2022/04/30 05:17:57;;;;;;;9.48;5.53;;;;;;;;;;5018533;28;20032;-73
2022/04/30 05:20:25;;;;;;;10.55;5.47;;;;;;;;;;5001229;28;20461;-73
2022/04/30 05:22:52;;;;;;;8.90;4.93;;;;;;;;;;5000042;28;20033;-73
2022/04/30 05:25:18;;;;;;;7.18;4.60;;;;;;;;;;5009682;28;20037;-73
2022/04/30 05:27:44;;;;;;;7.88;4.93;;;;;;;;;;5006190;28;20388;-73
2022/04/30 05:30:10;;;;;;;11.00;5.47;;;;;;;;;;5010422;28;20140;-73
2022/04/30 05:32:36;;;;;;;8.48;5.82;;;;;;;;;;5018340;28;20018;-73
2022/04/30 05:35:03;;;;;;;11.63;6.57;;;;;;;;;;5015563;28;20026;-73
2022/04/30 05:37:29;;;;;;;10.05;5.32;;;;;;;;;;5002594;28;20022;-73
2022/04/30 05:39:55;;;;;;;10.23;6.75;;;;;;;;;;4998022;28;20032;-72
2022/04/30 05:42:21;;;;;;;15.65;7.60;;;;;;;;;;5011550;28;20061;-72
2022/04/30 05:44:47;;;;;;;12.43;6.63;;;;;;;;;;4999597;28;20495;-72
2022/04/30 05:47:13;;;;;;;8.15;5.07;;;;;;;;;;5007469;28;20403;-72
2022/04/30 05:49:39;;;;;;;8.90;5.63;;;;;;;;;;5013557;28;20102;-72
2022/04/30 05:52:05;;;;;;;8.35;5.38;;;;;;;;;;5025504;28;20046;-72
2022/04/30 05:54:31;;;;;;;9.93;4.78;;;;;;;;;;5011592;28;20030;-72
2022/04/30 05:56:57;;;;;;;13.30;6.60;;;;;;;;;;5006361;28;20037;-72
2022/04/30 05:59:23;;;;;;;8.77;6.40;;;;;;;;;;5009336;28;20030;-72
2022/04/30 06:01:49;;;;;;;10.48;6.00;;;;;;;;;;4996650;28;20057;-72
2022/04/30 06:04:15;;;;;;;13.80;7.53;;;;;;;;;;5011567;28;20022;-72
2022/04/30 06:06:41;;;;;;;14.55;8.50;;;;;;;;;;4994676;28;20514;-72
2022/04/30 06:09:07;;;;;;;16.25;8.27;;;;;;;;;;5004307;28;20488;-73
2022/04/30 06:11:33;;;;;;;15.10;7.10;;;;;;;;;;5009056;28;20073;-74
2022/04/30 06:13:59;;;;;;;11.00;7.50;;;;;;;;;;5010552;28;20480;-68
2022/04/30 06:16:25;;;;;;;11.55;7.05;;;;;;;;;;4998421;28;20404;-73
2022/04/30 06:18:51;;;;;;;13.50;5.88;;;;;;;;;;5008656;28;20096;-73
2022/04/30 06:21:17;;;;;;;8.23;5.50;;;;;;;;;;5002989;28;20472;-71
2022/04/30 06:23:43;;;;;;;11.93;6.18;;;;;;;;;;5001601;28;20034;-71
2022/04/30 06:26:09;;;;;;;7.65;4.95;;;;;;;;;;5009837;28;20029;-70
2022/04/30 06:28:35;;;;;;;9.95;5.50;;;;;;;;;;4993483;28;20018;-73
2022/04/30 06:31:02;;;;;;;9.57;5.95;;;;;;;;;;4997974;28;20563;-73
2022/04/30 06:33:28;;;;;;;6.90;4.93;;;;;;;;;;5002739;28;20495;-73
2022/04/30 06:35:54;;;;;;;8.98;4.78;;;;;;;;;;5001933;28;20076;-73
2022/04/30 06:38:20;;;;;;;6.70;4.75;;;;;;;;;;5032844;22;20030;-71
2022/04/30 06:40:47;;;;;;;12.23;5.65;;;;;;;;;;5026154;28;20043;-69
2022/04/30 06:43:13;;;;;;;8.85;5.60;;;;;;;;;;5024003;28;20026;-70
2022/04/30 06:45:39;;;;;;;6.80;5.20;;;;;;;;;;5022692;28;20036;-69
2022/04/30 06:48:05;;;;;;;11.23;5.40;;;;;;;;;;5016276;28;20472;-70
2022/04/30 06:50:32;;;;;;;6.22;4.75;;;;;;;;;;5009919;28;20386;-70
2022/04/30 06:58:27;;;;;;;7.28;4.90;;;;;;;;;;4993370;28;20045;-70
2022/04/30 07:03:24;;;;;;;9.38;6.43;;;;;;;;;;5001843;28;20026;-72
2022/04/30 07:05:56;;;;;;;5.38;4.50;;;;;;;;;;4998889;28;20030;-71
2022/04/30 07:08:22;;;;;;;9.23;5.70;;;;;;;;;;5008105;28;20494;-70
2022/04/30 07:10:48;;;;;;;9.70;5.88;;;;;;;;;;4997263;28;20448;-71
2022/04/30 07:13:14;;;;;;;11.25;6.30;;;;;;;;;;5003871;28;20062;-71
2022/04/30 07:15:40;;;;;;;8.20;5.05;;;;;;;;;;5002885;28;20030;-72
2022/04/30 07:18:06;;;;;;;9.48;6.20;;;;;;;;;;4995822;28;20026;-71
2022/04/30 07:20:32;;;;;;;12.02;5.53;;;;;;;;;;5008205;28;20034;-71
2022/04/30 07:22:58;;;;;;;7.15;5.32;;;;;;;;;;4998675;28;20403;-71
2022/04/30 07:25:24;;;;;;;8.75;5.40;;;;;;;;;;5001845;28;20073;-70
2022/04/30 07:27:50;;;;;;;9.18;5.63;;;;;;;;;;5004181;28;20030;-71
2022/04/30 07:30:16;;;;;;;8.20;4.70;;;;;;;;;;4993783;28;20026;-70
2022/04/30 07:32:42;;;;;;;7.72;5.32;;;;;;;;;;5007443;28;20026;-72
2022/04/30 07:35:08;;;;;;;9.63;5.47;;;;;;;;;;4996564;28;20064;-72
2022/04/30 07:37:34;;;;;;;11.02;5.10;;;;;;;;;;4998786;28;20116;-71
2022/04/30 07:40:00;;;;;;;10.25;6.47;;;;;;;;;;4999910;28;20034;-71
2022/04/30 07:42:26;;;;;;;9.50;5.65;;;;;;;;;;5006728;28;20042;-71
2022/04/30 07:44:52;;;;;;;8.20;5.22;;;;;;;;;;4995569;28;20025;-72
2022/04/30 07:47:18;;;;;;;11.38;5.93;;;;;;;;;;5000306;28;20029;-70
2022/04/30 07:49:44;;;;;;;10.98;5.18;;;;;;;;;;5004571;28;20030;-71
2022/04/30 07:52:10;;;;;;;8.13;5.85;;;;;;;;;;4995344;28;20026;-70
2022/04/30 07:54:36;;;;;;;8.35;5.32;;;;;;;;;;5007014;28;20024;-71
2022/04/30 07:57:02;;;;;;;9.20;5.35;;;;;;;;;;4997201;28;20026;-72
2022/04/30 07:59:28;;;;;;;8.80;5.00;;;;;;;;;;5000526;28;20023;-74
2022/04/30 08:01:54;;;;;;;6.78;4.95;;;;;;;;;;5004198;28;20708;-76
2022/04/30 08:04:20;;;;;;;9.07;6.22;;;;;;;;;;4996220;28;20040;-74
2022/04/30 08:06:46;;;;;;;12.25;6.93;;;;;;;;;;5006939;28;20499;-75
2022/04/30 08:09:12;;;;;;;14.35;10.63;;;;;;;;;;4998524;28;20029;-74
2022/04/30 08:11:38;;;;;;;13.15;6.13;;;;;;;;;;4998870;28;20022;-76
2022/04/30 08:14:04;;;;;;;10.82;6.53;;;;;;;;;;5007365;28;20034;-76
2022/04/30 08:16:30;;;;;;;10.90;6.20;;;;;;;;;;4994107;28;20053;-76
2022/04/30 08:18:58;;;;;;;9.05;5.90;;;;;;;;;;5005367;28;20485;-76
2022/04/30 08:21:24;;;;;;;10.90;5.90;;;;;;;;;;5001785;28;20510;-77
2022/04/30 08:23:50;;;;;;;9.30;5.78;;;;;;;;;;4998453;28;20508;-75
2022/04/30 08:26:16;;;;;;;7.93;5.10;;;;;;;;;;5008384;28;20097;-76
2022/04/30 08:28:42;;;;;;;6.97;5.57;;;;;;;;;;4994173;28;20467;-76
2022/04/30 08:31:08;;;;;;;12.60;5.82;;;;;;;;;;5004491;28;20023;-74
2022/04/30 08:33:34;;;;;;;8.38;5.07;;;;;;;;;;5002915;28;20033;-76
2022/04/30 08:36:00;;;;;;;10.35;6.05;;;;;;;;;;4996008;28;20045;-76
2022/04/30 08:38:26;;;;;;;8.48;5.57;;;;;;;;;;5007590;28;20026;-76
2022/04/30 08:40:52;;;;;;;12.95;5.88;;;;;;;;;;4999573;28;20022;-76
2022/04/30 08:43:20;;;;;;;7.25;5.63;;;;;;;;;;5016075;28;20491;-77
2022/04/30 08:45:46;;;;;;;11.00;6.45;;;;;;;;;;5003738;28;20034;-76
2022/04/30 08:48:12;;;;;;;8.43;5.35;;;;;;;;;;5011767;28;20053;-76
2022/04/30 08:50:39;;;;;;;13.18;6.00;;;;;;;;;;5000402;28;20030;-77
2022/04/30 08:53:05;;;;;;;10.40;6.05;;;;;;;;;;4995533;28;20422;-75
2022/04/30 08:55:31;;;;;;;9.73;6.10;;;;;;;;;;4998091;28;20118;-77
2022/04/30 08:57:58;;;;;;;10.55;5.90;;;;;;;;;;4994164;28;20042;-77
2022/04/30 09:00:24;;;;;;;7.72;5.85;;;;;;;;;;5010010;28;20123;-76
2022/04/30 09:02:50;;;;;;;8.82;5.38;;;;;;;;;;4999649;28;20104;-76
2022/04/30 09:05:16;;;;;;;8.85;5.50;;;;;;;;;;5006753;28;20031;-76
2022/04/30 09:07:52;;;;;;;9.43;5.45;;;;;;;;;;5007273;28;20541;-77
2022/04/30 09:10:21;;;;;;;10.45;6.25;;;;;;;;;;4999055;28;20025;-76
2022/04/30 09:12:47;;;;;;;8.65;5.68;;;;;;;;;;5010783;28;20045;-76
2022/04/30 09:15:15;;;;;;;10.98;6.13;;;;;;;;;;5002766;28;20058;-76
2022/04/30 09:17:41;;;;;;;13.95;7.07;;;;;;;;;;5002138;28;20058;-76
2022/04/30 09:20:07;;;;;;;11.05;6.63;;;;;;;;;;5009091;28;20030;-76
2022/04/30 09:22:34;;;;;;;16.52;6.50;;;;;;;;;;4998788;28;20057;-76
2022/04/30 09:25:01;;;;;;;19.15;7.05;;;;;;;;;;5008504;28;20030;-76
2022/04/30 09:27:27;;;;;;;12.88;6.55;;;;;;;;;;5004186;28;20073;-75
2022/04/30 09:29:53;;;;;;;12.48;7.70;;;;;;;;;;4999988;28;20544;-77
2022/04/30 09:32:24;;;;;;;10.90;6.65;;;;;;;;;;5011459;28;20034;-77
2022/04/30 09:37:41;;;;;;;10.82;6.57;;;;;;;;;;5004319;28;20042;-76
2022/04/30 09:40:16;;;;;;;10.63;6.10;;;;;;;;;;5005373;28;20042;-77
2022/04/30 09:42:43;;;;;;;13.63;6.47;;;;;;;;;;4976513;28;20037;-77
2022/04/30 09:45:10;;;;;;;11.60;6.57;;;;;;;;;;4990609;28;20041;-78
2022/04/30 09:47:36;;;;;;;14.50;6.85;;;;;;;;;;5003644;28;20037;-75
2022/04/30 09:55:52;;;;;;;10.20;6.68;;;;;;;;;;5001069;28;20065;-75
2022/04/30 09:58:21;;;;;;;9.93;6.57;;;;;;;;;;5014506;28;20030;-75
2022/04/30 10:00:47;;;;;;;12.88;7.32;;;;;;;;;;5009976;28;20451;-76
2022/04/30 10:03:13;;;;;;;13.63;7.22;;;;;;;;;;4996884;28;20040;-75
2022/04/30 10:05:41;;;;;;;11.75;6.95;;;;;;;;;;5005127;28;20084;-75
2022/04/30 10:08:07;;;;;;;13.32;6.72;;;;;;;;;;5025242;28;20030;-75
2022/04/30 10:10:44;;;;;;;9.88;6.35;;;;;;;;;;5015089;28;20191;-76
2022/04/30 10:13:14;;;;;;;11.48;6.88;;;;;;;;;;5024471;28;20026;-75
2022/04/30 10:15:51;;;;;;;15.93;7.80;;;;;;;;;;5024085;28;20032;-75
2022/04/30 10:18:18;;;;;;;11.18;7.68;;;;;;;;;;5029214;28;20028;-76
2022/04/30 10:20:51;;;;;;;11.48;8.02;;;;;;;;;;5024454;28;20041;-75
2022/04/30 10:23:17;;;;;;;13.35;7.55;;;;;;;;;;5002704;28;20027;-75
2022/04/30 10:25:47;;;;;;;11.65;8.00;;;;;;;;;;5006050;28;20030;-76
2022/04/30 10:28:15;;;;;;;12.68;7.70;;;;;;;;;;5002059;28;20026;-76
2022/04/30 10:30:42;;;;;;;9.82;6.80;;;;;;;;;;5011548;28;20031;-75
2022/04/30 10:33:09;;;;;;;11.65;7.07;;;;;;;;;;5019540;28;20195;-76
2022/04/30 10:35:36;;;;;;;10.23;7.57;;;;;;;;;;5028089;28;20498;-76
2022/04/30 10:38:21;;;;;;;13.18;8.05;;;;;;;;;;5016895;28;20037;-76
2022/04/30 10:40:47;;;;;;;14.85;7.28;;;;;;;;;;5009593;28;20034;-76
2022/04/30 10:43:14;;;;;;;11.02;7.10;;;;;;;;;;5008369;28;20104;-74
2022/04/30 10:45:40;;;;;;;9.25;6.95;;;;;;;;;;5014292;28;20061;-76
2022/04/30 10:48:06;;;;;;;13.15;7.57;;;;;;;;;;5002231;28;20023;-76
2022/04/30 10:50:32;;;;;;;10.32;7.82;;;;;;;;;;5003664;28;20049;-76
2022/04/30 10:53:00;;;;;;;12.25;7.88;;;;;;;;;;5019198;28;20484;-76
2022/04/30 10:55:26;;;;;;;11.50;7.28;;;;;;;;;;5022833;28;20035;-76
2022/04/30 10:57:53;;;;;;;11.15;7.55;;;;;;;;;;4996927;28;20084;-76
2022/04/30 11:00:21;;;;;;;12.10;7.28;;;;;;;;;;4994142;28;20041;-75
2022/04/30 11:02:47;;;;;;;9.68;6.88;;;;;;;;;;4994318;28;20019;-75
2022/04/30 11:05:23;;;;;;;11.43;7.13;;;;;;;;;;5020982;28;20013;-76
2022/04/30 11:07:49;;;;;;;11.43;7.88;;;;;;;;;;5023088;28;20037;-75
2022/04/30 11:10:15;;;;;;;9.73;7.35;;;;;;;;;;5014133;28;20030;-76
2022/04/30 11:12:43;;;;;;;13.40;7.63;;;;;;;;;;5013823;28;20530;-76
2022/04/30 11:15:10;;;;;;;13.50;8.27;;;;;;;;;;5014173;28;20052;-76
2022/04/30 11:17:46;;;;;;;12.00;7.43;;;;;;;;;;5013355;28;20069;-77
2022/04/30 11:20:12;;;;;;;14.15;8.02;;;;;;;;;;5014069;28;20022;-76
2022/04/30 11:22:38;;;;;;;14.98;7.32;;;;;;;;;;4994112;28;20038;-77
2022/04/30 11:25:04;;;;;;;16.02;8.20;;;;;;;;;;4994328;28;20026;-75
2022/04/30 11:27:31;;;;;;;9.38;6.97;;;;;;;;;;4993321;28;20023;-76
2022/04/30 11:29:57;;;;;;;11.98;7.00;;;;;;;;;;5006678;28;20030;-76
2022/04/30 11:32:24;;;;;;;10.43;7.03;;;;;;;;;;4996086;28;20405;-76
2022/04/30 11:34:50;;;;;;;13.75;7.45;;;;;;;;;;4994181;28;20113;-75
2022/04/30 11:37:17;;;;;;;9.77;7.15;;;;;;;;;;5002123;28;20034;-75
2022/04/30 11:39:43;;;;;;;12.70;7.43;;;;;;;;;;5013189;28;20041;-75
2022/04/30 11:42:09;;;;;;;11.10;6.63;;;;;;;;;;5014308;28;20021;-76
2022/04/30 11:44:35;;;;;;;17.83;7.13;;;;;;;;;;5014741;28;20029;-76
2022/04/30 11:47:01;;;;;;;11.23;6.25;;;;;;;;;;5007005;28;20628;-73
2022/04/30 11:49:27;;;;;;;11.45;6.28;;;;;;;;;;4992121;28;20038;-75
2022/04/30 11:51:56;;;;;;;10.95;6.68;;;;;;;;;;4993628;28;20030;-74
2022/04/30 11:54:23;;;;;;;11.00;6.90;;;;;;;;;;4993783;28;20105;-75
2022/04/30 11:56:50;;;;;;;9.52;6.78;;;;;;;;;;4995738;28;20077;-76
2022/04/30 11:59:16;;;;;;;9.43;6.32;;;;;;;;;;5001135;28;20026;-75
2022/04/30 12:01:42;;;;;;;10.57;6.07;;;;;;;;;;5001479;28;20499;-76
2022/04/30 12:04:14;;;;;;;10.48;6.22;;;;;;;;;;4994017;28;20118;-76
2022/04/30 12:06:44;;;;;;;10.50;6.45;;;;;;;;;;4993575;28;20030;-76
2022/04/30 12:09:16;;;;;;;12.75;5.75;;;;;;;;;;4993376;28;20036;-75
2022/04/30 12:11:43;;;;;;;7.47;5.63;;;;;;;;;;4993303;28;20057;-75
2022/04/30 12:14:09;;;;;;;13.55;6.13;;;;;;;;;;4992275;28;20141;-75
2022/04/30 12:16:37;;;;;;;12.95;5.65;;;;;;;;;;4993254;28;20030;-75
2022/04/30 12:24:43;;;;;;;10.27;6.50;;;;;;;;;;4997691;28;20053;-75
2022/04/30 12:27:18;;;;;;;12.25;6.05;;;;;;;;;;5014860;28;20052;-74
2022/04/30 12:29:44;;;;;;;8.82;6.28;;;;;;;;;;5014703;28;20032;-74
2022/04/30 12:32:10;;;;;;;10.35;5.57;;;;;;;;;;5013423;28;20073;-76
2022/04/30 12:34:38;;;;;;;10.32;6.22;;;;;;;;;;5013362;28;20029;-77
2022/04/30 12:37:04;;;;;;;8.77;5.93;;;;;;;;;;5012913;28;20030;-75
2022/04/30 12:39:30;;;;;;;8.70;5.72;;;;;;;;;;5035529;22;20495;-72
2022/04/30 12:41:59;;;;;;;8.35;6.80;;;;;;;;;;5015776;28;20054;-76
2022/04/30 12:44:26;;;;;;;12.40;6.60;;;;;;;;;;5023766;28;20026;-75
2022/04/30 12:46:53;;;;;;;7.72;5.55;;;;;;;;;;5009597;28;20017;-75
2022/04/30 12:49:19;;;;;;;8.18;6.18;;;;;;;;;;5005236;28;20036;-75
2022/04/30 12:51:46;;;;;;;10.05;6.05;;;;;;;;;;5006014;28;20022;-76
2022/04/30 12:54:13;;;;;;;13.52;7.03;;;;;;;;;;5010628;28;20026;-75
2022/04/30 12:56:48;;;;;;;10.40;6.35;;;;;;;;;;4977977;28;20044;-74
2022/04/30 12:59:16;;;;;;;9.05;6.40;;;;;;;;;;5002368;28;20112;-76
2022/04/30 13:01:43;;;;;;;10.82;6.00;;;;;;;;;;4999379;28;20102;-74
2022/04/30 13:04:12;;;;;;;13.68;6.13;;;;;;;;;;5002523;28;20029;-76
2022/04/30 13:06:38;;;;;;;18.63;6.55;;;;;;;;;;5003797;28;20053;-72
2022/04/30 13:14:33;;;;;;;7.05;4.38;;;;;;;;;;5005516;28;20077;-73
2022/04/30 13:17:00;;;;;;;23.98;15.38;;;;;;;;;;4993841;28;20026;-71
2022/04/30 13:19:26;;;;;;;10.45;8.27;;;;;;;;;;4990848;28;20051;-73
2022/04/30 13:21:52;;;;;;;104.10;68.05;;;;;;;;;;5000878;28;20468;-72
2022/04/30 13:24:18;;;;;;;12.65;8.57;;;;;;;;;;4993415;28;20034;-76
2022/04/30 13:26:45;;;;;;;9.25;5.70;;;;;;;;;;4994592;28;20046;-70
2022/04/30 13:29:11;;;;;;;23.85;12.27;;;;;;;;;;5009011;28;20076;-70
2022/04/30 13:31:38;;;;;;;37.00;22.73;;;;;;;;;;5001838;28;20093;-72
2022/04/30 13:34:04;;;;;;;102.28;59.97;;;;;;;;;;5009576;28;20026;-74
2022/04/30 13:36:32;;;;;;;83.53;45.60;;;;;;;;;;5009294;28;20022;-73
2022/04/30 13:39:00;;;;;;;114.50;62.67;;;;;;;;;;5000278;28;20030;-72
2022/04/30 13:41:26;;;;;;;14.75;8.85;;;;;;;;;;4999701;28;20025;-72
2022/04/30 13:43:51;;;;;;;11.52;7.22;;;;;;;;;;5007525;28;20116;-72
2022/04/30 13:46:18;;;;;;;7.88;5.85;;;;;;;;;;4999368;28;20026;-72
2022/04/30 13:48:43;;;;;;;18.60;10.57;;;;;;;;;;4999047;28;20022;-73
2022/04/30 13:51:09;;;;;;;32.63;18.92;;;;;;;;;;5002574;28;20023;-73
2022/04/30 13:53:36;;;;;;;19.60;10.32;;;;;;;;;;5002337;28;20022;-75
2022/04/30 13:56:02;;;;;;;25.15;16.65;;;;;;;;;;5006319;28;20030;-76
2022/04/30 13:58:28;;;;;;;46.95;28.63;;;;;;;;;;4998539;28;20022;-75
2022/04/30 14:00:54;;;;;;;56.25;34.13;;;;;;;;;;5010330;28;20026;-75
2022/04/30 14:03:21;;;;;;;12.48;5.57;;;;;;;;;;5001008;28;20081;-76
2022/04/30 14:05:47;;;;;;;248.30;139.73;;;;;;;;;;5004440;28;20018;-76
2022/04/30 14:08:14;;;;;;;177.20;102.55;;;;;;;;;;5006466;28;20041;-69
2022/04/30 14:10:40;;;;;;;14.00;8.55;;;;;;;;;;4995672;28;20397;-70
2022/04/30 14:15:51;;;;;;;8.35;5.00;;;;;;;;;;4997077;28;20080;-76
2022/04/30 14:18:19;;;;;;;18.08;10.57;;;;;;;;;;5012950;28;20415;-75
2022/04/30 14:20:45;;;;;;;68.53;37.83;;;;;;;;;;5002139;28;20250;-76
2022/04/30 14:23:11;;;;;;;10.77;5.35;;;;;;;;;;5002368;28;20026;-73
2022/04/30 14:25:38;;;;;;;10.98;5.55;;;;;;;;;;5010463;28;20117;-75
2022/04/30 14:28:05;;;;;;;21.35;12.52;;;;;;;;;;5004316;28;20022;-75
2022/04/30 14:30:34;;;;;;;8.07;4.70;;;;;;;;;;5016643;28;20161;-75
2022/04/30 14:33:01;;;;;;;6.78;4.10;;;;;;;;;;5001371;28;20037;-75
2022/04/30 14:35:27;;;;;;;9.30;4.47;;;;;;;;;;5012696;28;20026;-75
2022/04/30 14:37:53;;;;;;;11.55;5.18;;;;;;;;;;5007673;28;20503;-75
2022/04/30 14:40:20;;;;;;;23.40;13.32;;;;;;;;;;5000122;28;20121;-76
2022/04/30 14:42:47;;;;;;;9.23;5.40;;;;;;;;;;5012185;28;20133;-74
2022/04/30 14:45:14;;;;;;;19.98;10.52;;;;;;;;;;5002202;28;20033;-74
2022/04/30 14:47:41;;;;;;;22.02;12.40;;;;;;;;;;5007023;28;20018;-75
2022/04/30 14:50:07;;;;;;;7.32;4.10;;;;;;;;;;5010979;28;20022;-75
2022/04/30 14:52:33;;;;;;;5.80;3.88;;;;;;;;;;5013992;28;20033;-75
2022/04/30 14:54:59;;;;;;;6.72;4.13;;;;;;;;;;4995682;28;20400;-75
2022/04/30 14:57:26;;;;;;;11.93;5.28;;;;;;;;;;5006726;28;20419;-75
2022/04/30 14:59:52;;;;;;;12.32;5.97;;;;;;;;;;5001150;28;20420;-74
2022/04/30 15:02:18;;;;;;;11.80;4.72;;;;;;;;;;5001526;28;20041;-74
2022/04/30 15:04:45;;;;;;;5.88;3.88;;;;;;;;;;5013106;28;20014;-75
2022/04/30 15:07:12;;;;;;;10.45;5.70;;;;;;;;;;4998892;28;20014;-71
2022/04/30 15:09:40;;;;;;;6.22;4.03;;;;;;;;;;5003469;28;20345;-70
2022/04/30 15:12:06;;;;;;;9.52;4.13;;;;;;;;;;5004224;28;20072;-71
2022/04/30 15:14:35;;;;;;;7.85;3.85;;;;;;;;;;4996403;28;20395;-72
2022/04/30 15:17:01;;;;;;;11.55;5.63;;;;;;;;;;4979906;28;20367;-72
2022/04/30 15:19:27;;;;;;;7.10;3.50;;;;;;;;;;5004545;28;20061;-71
2022/04/30 15:21:53;;;;;;;7.85;3.60;;;;;;;;;;5003222;28;20032;-72
2022/04/30 15:24:22;;;;;;;5.35;3.92;;;;;;;;;;5007899;28;20033;-72